Time;durP1;ratioP1;P1;durP2;ratioP2;P2;SDS_P1;SDS_P2;PMS_P1;PMS_P2;Temp;Humidity;BMP_temperature;BMP_pressure;BME280_temperature;BME280_humidity;BME280_pressure;Samples;Min_cycle;Max_cycle;Signal;HPM_P1;HPM_P2
2021/12/31 00:00:00;;;;;;;;;18.75;16.75;;;;;13.42;70.69;102032.91;6341227;22;46265;-86
2021/12/31 00:02:26;;;;;;;;;16.00;14.75;;;;;13.39;70.88;102034.72;6341482;22;45200;-86
2021/12/31 00:04:51;;;;;;;;;21.50;14.75;;;;;13.39;70.68;102036.50;6341555;22;45381;-86
2021/12/31 00:07:17;;;;;;;;;17.25;14.25;;;;;13.36;70.73;102020.72;6341616;22;45198;-87
2021/12/31 00:09:42;;;;;;;;;19.00;16.25;;;;;13.35;70.98;102022.50;6313200;22;45994;-89
2021/12/31 00:12:08;;;;;;;;;17.25;15.75;;;;;13.34;71.02;102026.03;6341476;22;45130;-88
2021/12/31 00:14:35;;;;;;;;;16.50;14.25;;;;;13.35;71.06;102022.50;6312935;22;45202;-88
2021/12/31 00:17:01;;;;;;;;;20.00;16.75;;;;;13.33;71.27;102024.34;6341447;22;45205;-87
2021/12/31 00:19:29;;;;;;;;;14.00;12.25;;;;;13.33;70.86;102020.81;6341131;22;46112;-87
2021/12/31 00:21:55;;;;;;;;;16.75;14.50;;;;;13.30;71.14;102013.84;6341460;22;45746;-87
2021/12/31 00:24:23;;;;;;;;;15.75;13.25;;;;;13.33;71.12;102015.53;6341542;22;45372;-87
2021/12/31 00:26:49;;;;;;;;;17.00;16.25;;;;;13.32;71.04;102016.44;6341425;22;45131;-87
2021/12/31 00:29:14;;;;;;;;;21.00;16.75;;;;;13.30;70.83;102012.97;6341024;22;45312;-87
2021/12/31 00:31:40;;;;;;;;;17.25;16.00;;;;;13.26;71.12;102002.47;6341715;22;45218;-86
2021/12/31 00:34:05;;;;;;;;;15.75;14.50;;;;;13.25;71.12;102000.75;6341614;22;45183;-86
2021/12/31 00:36:42;;;;;;;;;13.50;13.50;;;;;13.26;70.95;102005.09;6341263;22;45111;-86
2021/12/31 00:39:07;;;;;;;;;19.00;18.00;;;;;13.22;71.21;102003.44;6341270;22;45365;-85
2021/12/31 00:41:33;;;;;;;;;15.50;15.00;;;;;13.21;71.15;101992.94;6341605;22;45229;-85
2021/12/31 00:43:59;;;;;;;;;11.50;10.50;;;;;13.20;71.46;101999.97;6341256;22;45250;-85
2021/12/31 00:46:24;;;;;;;;;15.50;14.50;;;;;13.21;71.14;101996.41;6341100;22;45409;-84
2021/12/31 00:48:50;;;;;;;;;16.50;13.50;;;;;13.17;70.96;102002.69;6341322;22;45411;-84
2021/12/31 00:51:15;;;;;;;;;15.50;14.25;;;;;13.16;70.88;102004.47;6341274;22;45352;-84
2021/12/31 00:53:40;;;;;;;;;17.25;15.50;;;;;13.14;71.05;102002.75;6313100;22;45268;-88
2021/12/31 00:56:06;;;;;;;;;22.00;18.00;;;;;13.12;70.99;102005.44;6341018;22;45458;-81
2021/12/31 00:58:31;;;;;;;;;16.00;15.25;;;;;13.13;70.79;102014.22;6340737;22;46191;-81
2021/12/31 01:00:57;;;;;;;;;16.75;14.25;;;;;13.10;71.25;102009.03;6341416;22;45150;-80
2021/12/31 01:03:22;;;;;;;;;18.00;15.75;;;;;13.07;70.84;102007.31;6341438;22;45160;-81
2021/12/31 01:05:47;;;;;;;;;12.75;12.75;;;;;13.04;70.82;102002.97;6341079;22;45144;-81
2021/12/31 01:08:13;;;;;;;;;18.75;14.50;;;;;13.04;70.93;102000.34;6341307;22;45335;-81
2021/12/31 01:10:38;;;;;;;;;19.75;14.00;;;;;13.02;70.87;102003.91;6340968;22;45185;-82
2021/12/31 01:13:09;;;;;;;;;16.25;15.25;;;;;13.00;70.70;102000.44;6341579;22;45136;-82
2021/12/31 01:15:42;;;;;;;;;14.25;12.25;;;;;13.01;70.88;102007.47;6340557;22;45390;-82
2021/12/31 01:20:36;;;;;;;;;16.25;14.75;;;;;12.97;70.76;101984.66;6340361;22;45212;-82
2021/12/31 01:23:03;;;;;;;;;12.25;12.25;;;;;12.94;70.95;101981.22;6340795;22;45289;-82
2021/12/31 01:25:28;;;;;;;;;14.50;14.50;;;;;12.93;70.82;101979.50;6341070;22;45322;-83
2021/12/31 01:27:54;;;;;;;;;17.00;15.50;;;;;12.93;71.14;101976.84;6341098;22;45371;-87
2021/12/31 01:30:21;;;;;;;;;18.00;15.75;;;;;12.92;71.11;101966.31;6311342;22;45320;-94
2021/12/31 01:32:46;;;;;;;;;17.50;14.00;;;;;12.92;71.16;101976.88;6313971;22;45207;-93
2021/12/31 01:35:13;;;;;;;;;16.75;16.00;;;;;12.90;71.29;101971.63;6313136;22;45992;-90
2021/12/31 01:37:39;;;;;;;;;16.75;13.25;;;;;12.88;70.72;101976.09;6312936;22;46264;-90
2021/12/31 01:40:06;;;;;;;;;12.50;12.50;;;;;12.86;71.19;101969.09;6341454;22;45347;-89
2021/12/31 01:42:33;;;;;;;;;16.75;14.50;;;;;12.86;70.97;101967.34;6341005;22;45348;-88
2021/12/31 01:45:12;;;;;;;;;17.00;13.25;;;;;12.82;70.95;101969.16;6340527;22;45183;-88
2021/12/31 01:50:24;;;;;;;;;15.50;13.00;;;;;12.81;71.06;101978.00;6340725;22;45445;-87
2021/12/31 01:52:50;;;;;;;;;10.75;10.75;;;;;12.79;70.96;101976.31;6340789;22;45425;-85
2021/12/31 01:55:16;;;;;;;;;17.25;15.25;;;;;12.78;70.86;101979.81;6341060;22;45351;-83
2021/12/31 01:57:42;;;;;;;;;16.50;15.50;;;;;12.78;70.90;101993.00;6340664;22;45468;-89
2021/12/31 02:00:10;;;;;;;;;16.75;15.75;;;;;12.75;71.22;102001.00;6312229;22;45899;-88
2021/12/31 02:02:36;;;;;;;;;13.50;12.00;;;;;12.72;70.81;101996.66;6341149;22;45211;-88
2021/12/31 02:05:03;;;;;;;;;13.75;12.50;;;;;12.71;71.04;102010.75;6340743;22;45161;-88
2021/12/31 02:07:30;;;;;;;;;17.00;14.75;;;;;12.71;71.40;102016.91;6340503;22;47277;-87
2021/12/31 02:09:55;;;;;;;;;17.75;15.50;;;;;12.69;71.33;102012.56;6340612;22;45727;-88
2021/12/31 02:12:22;;;;;;;;;14.50;14.50;;;;;12.70;71.04;102011.66;6340684;22;45351;-82
2021/12/31 02:14:50;;;;;;;;;21.25;15.00;;;;;12.71;70.69;102005.47;6340289;22;45146;-82
2021/12/31 02:17:15;;;;;;;;;16.50;15.25;;;;;12.67;70.87;101998.50;6340463;22;45264;-82
2021/12/31 02:19:44;;;;;;;;;15.25;14.50;;;;;12.64;70.67;101998.59;6340763;22;45218;-82
2021/12/31 02:22:09;;;;;;;;;15.00;14.75;;;;;12.65;70.77;102008.22;6339889;22;45245;-81
2021/12/31 02:24:36;;;;;;;;;16.50;15.00;;;;;12.59;70.80;101999.53;6340258;22;45263;-81
2021/12/31 02:27:02;;;;;;;;;16.75;15.00;;;;;12.58;70.39;101991.69;6340672;22;45381;-82
2021/12/31 02:29:28;;;;;;;;;16.25;14.50;;;;;12.57;70.45;102000.47;6340121;22;45607;-81
2021/12/31 02:31:53;;;;;;;;;14.50;12.50;;;;;12.52;70.55;101995.31;6340576;22;45136;-81
2021/12/31 02:34:19;;;;;;;;;15.50;14.25;;;;;12.52;70.69;101987.38;6340607;22;45475;-83
2021/12/31 02:36:46;;;;;;;;;17.50;14.00;;;;;12.52;71.11;101979.47;6340148;22;47039;-81
2021/12/31 02:39:11;;;;;;;;;14.50;13.00;;;;;12.51;70.50;101988.31;6340455;22;45231;-81
2021/12/31 02:41:37;;;;;;;;;16.75;15.25;;;;;12.47;70.65;101971.66;6341529;22;45343;-81
2021/12/31 02:44:03;;;;;;;;;15.25;12.25;;;;;12.47;70.92;101978.75;6341458;22;45464;-81
2021/12/31 02:46:28;;;;;;;;;18.00;14.00;;;;;12.43;70.72;101974.41;6342023;22;46651;-84
2021/12/31 02:48:57;;;;;;;;;17.25;16.25;;;;;12.42;70.77;101972.69;6342059;22;45357;-84
2021/12/31 02:51:28;;;;;;;;;21.75;17.50;;;;;12.40;71.08;101964.78;6341884;22;45148;-83
2021/12/31 02:53:55;;;;;;;;;20.50;19.25;;;;;12.38;70.93;101966.59;6341438;22;45664;-86
2021/12/31 02:56:22;;;;;;;;;16.25;16.25;;;;;12.39;70.94;101968.34;6341244;22;46273;-86
2021/12/31 02:58:47;;;;;;;;;19.25;15.50;;;;;12.36;70.89;101969.28;6341474;22;45532;-86
2021/12/31 03:01:13;;;;;;;;;14.25;14.25;;;;;12.37;70.83;101971.00;6342026;22;45093;-86
2021/12/31 03:03:40;;;;;;;;;14.50;14.25;;;;;12.35;70.32;101951.72;6341885;22;45176;-85
2021/12/31 03:06:08;;;;;;;;;16.50;15.50;;;;;12.33;70.60;101939.47;6341574;22;46671;-86
2021/12/31 03:08:43;;;;;;;;;15.75;14.75;;;;;12.33;70.80;101942.09;6341797;22;45289;-85
2021/12/31 03:11:09;;;;;;;;;17.00;15.75;;;;;12.30;70.72;101944.81;6342059;22;45319;-85
2021/12/31 03:13:36;;;;;;;;;18.75;15.25;;;;;12.26;70.43;101944.88;6341567;22;45325;-84
2021/12/31 03:16:02;;;;;;;;;17.50;12.50;;;;;12.26;70.48;101946.63;6341524;22;45472;-83
2021/12/31 03:18:28;;;;;;;;;19.25;16.00;;;;;12.23;70.38;101938.78;6341811;22;45257;-84
2021/12/31 03:21:00;;;;;;;;;19.75;15.75;;;;;12.21;70.54;101941.47;6341232;22;45112;-83
2021/12/31 03:23:26;;;;;;;;;19.25;18.25;;;;;12.21;70.68;101945.84;6341566;22;45405;-84
2021/12/31 03:25:52;;;;;;;;;17.75;14.50;;;;;12.22;70.75;101968.69;6341865;22;45453;-84
2021/12/31 03:28:18;;;;;;;;;16.75;15.00;;;;;12.17;70.57;101965.28;6341586;22;45200;-83
2021/12/31 03:30:44;;;;;;;;;20.25;18.00;;;;;12.15;70.54;101971.44;6341602;22;45457;-83
2021/12/31 03:33:10;;;;;;;;;16.75;15.00;;;;;12.13;71.10;101975.00;6341651;22;45108;-83
2021/12/31 03:35:35;;;;;;;;;16.00;15.25;;;;;12.11;70.64;101980.28;6341564;22;45392;-83
2021/12/31 03:38:01;;;;;;;;;22.00;16.50;;;;;12.10;70.83;101994.34;6341012;22;45216;-83
2021/12/31 03:40:26;;;;;;;;;17.00;16.00;;;;;12.09;70.75;102013.69;6341833;22;45212;-84
2021/12/31 03:42:51;;;;;;;;;18.00;14.50;;;;;12.08;70.74;102016.34;6341251;22;45429;-84
2021/12/31 03:45:17;;;;;;;;;16.25;12.75;;;;;12.04;71.02;102028.72;6341221;22;46323;-85
2021/12/31 03:47:42;;;;;;;;;16.25;15.75;;;;;12.02;70.82;102035.81;6341614;22;45266;-85
2021/12/31 03:50:08;;;;;;;;;13.75;11.75;;;;;11.99;71.13;102022.66;6313170;22;45259;-84
2021/12/31 03:52:38;;;;;;;;;13.75;13.00;;;;;11.96;70.81;102005.16;6340865;22;45245;-84
2021/12/31 03:55:06;;;;;;;;;14.00;14.00;;;;;11.97;70.87;101992.84;6341567;22;45437;-84
2021/12/31 03:57:32;;;;;;;;;14.25;14.00;;;;;11.98;70.71;101991.94;6341510;22;45314;-88
2021/12/31 03:59:57;;;;;;;;;16.00;14.75;;;;;11.97;70.61;101972.66;6313261;22;45262;-87
2021/12/31 04:02:23;;;;;;;;;15.25;13.50;;;;;11.97;70.70;101958.59;6341508;22;45298;-88
2021/12/31 04:04:48;;;;;;;;;17.00;12.25;;;;;11.96;70.79;101973.53;6341321;22;45247;-86
2021/12/31 04:07:13;;;;;;;;;14.75;13.50;;;;;11.94;70.56;101977.97;6341491;22;45293;-85
2021/12/31 04:09:39;;;;;;;;;20.75;14.50;;;;;11.92;70.33;101974.50;6341607;22;45430;-88
2021/12/31 04:12:04;;;;;;;;;13.25;10.75;;;;;11.92;70.49;101964.84;6341531;22;45264;-85
2021/12/31 04:14:30;;;;;;;;;13.25;12.75;;;;;11.92;70.53;101943.75;6341328;22;46084;-86
2021/12/31 04:16:55;;;;;;;;;12.75;12.25;;;;;11.90;70.74;101958.69;6341393;22;45357;-86
2021/12/31 04:19:20;;;;;;;;;13.25;13.00;;;;;11.89;70.78;101962.25;6341643;22;45250;-86
2021/12/31 04:21:49;;;;;;;;;18.00;13.50;;;;;11.90;70.62;101965.75;6340708;22;45322;-88
2021/12/31 04:24:26;;;;;;;;;15.75;13.00;;;;;11.89;70.87;101958.75;6341092;22;46206;-86
2021/12/31 04:26:51;;;;;;;;;13.75;12.00;;;;;11.86;70.63;101964.94;6341445;22;45222;-84
2021/12/31 04:29:17;;;;;;;;;13.00;12.00;;;;;11.84;70.52;101964.09;6341128;22;45475;-87
2021/12/31 04:31:42;;;;;;;;;13.50;12.25;;;;;11.83;70.63;101954.44;6312419;22;45987;-87
2021/12/31 04:34:08;;;;;;;;;15.00;13.50;;;;;11.82;70.49;101952.72;6312989;22;48130;-88
2021/12/31 04:36:33;;;;;;;;;14.75;12.50;;;;;11.80;70.46;101954.53;6341324;22;45285;-87
2021/12/31 04:38:59;;;;;;;;;16.00;12.25;;;;;11.77;70.48;101949.31;6341759;22;45155;-87
2021/12/31 04:41:24;;;;;;;;;13.50;13.00;;;;;11.77;70.41;101944.03;6313179;22;46815;-87
2021/12/31 04:43:49;;;;;;;;;14.50;12.00;;;;;11.75;70.71;101948.47;6341090;22;46194;-85
2021/12/31 04:46:15;;;;;;;;;15.00;13.75;;;;;11.75;70.46;101948.47;6341403;22;45294;-83
2021/12/31 04:48:40;;;;;;;;;14.00;11.75;;;;;11.71;70.41;101939.75;6341528;22;45326;-83
2021/12/31 04:51:06;;;;;;;;;12.50;11.50;;;;;11.69;70.42;101931.88;6341217;22;45397;-83
2021/12/31 04:53:31;;;;;;;;;11.50;11.25;;;;;11.67;70.61;101923.16;6341558;22;46648;-83
2021/12/31 04:55:57;;;;;;;;;10.75;10.75;;;;;11.67;70.50;101928.41;6341596;22;45202;-85
2021/12/31 04:58:22;;;;;;;;;13.75;13.00;;;;;11.64;70.69;101931.09;6341302;22;45182;-87
2021/12/31 05:00:47;;;;;;;;;15.75;14.75;;;;;11.64;70.67;101940.75;6341494;22;45150;-87
2021/12/31 05:03:14;;;;;;;;;16.75;15.50;;;;;11.64;70.68;101944.25;6312393;22;46830;-87
2021/12/31 05:05:39;;;;;;;;;17.00;14.00;;;;;11.63;70.00;101947.78;6341105;22;45692;-87
2021/12/31 05:08:05;;;;;;;;;17.50;14.50;;;;;11.61;70.83;101951.34;6341233;22;45089;-87
2021/12/31 05:10:32;;;;;;;;;13.50;11.75;;;;;11.62;70.79;101946.06;6341223;22;45408;-87
2021/12/31 05:13:02;;;;;;;;;13.25;11.75;;;;;11.61;70.72;101948.69;6312487;22;47479;-84
2021/12/31 05:15:32;;;;;;;;;14.50;14.50;;;;;11.57;70.73;101942.63;6340579;22;45673;-84
2021/12/31 05:17:57;;;;;;;;;13.50;12.50;;;;;11.58;70.59;101958.41;6341231;22;45361;-84
2021/12/31 05:20:23;;;;;;;;;12.50;12.50;;;;;11.54;71.06;101948.81;6339853;22;45438;-83
2021/12/31 05:22:49;;;;;;;;;16.50;14.00;;;;;11.54;70.60;101943.56;6341327;22;46281;-83
2021/12/31 05:25:16;;;;;;;;;15.25;12.00;;;;;11.52;70.64;101942.72;6341225;22;45379;-83
2021/12/31 05:27:42;;;;;;;;;18.75;14.00;;;;;11.52;70.44;101955.00;6341531;22;45340;-83
2021/12/31 05:30:08;;;;;;;;;12.75;12.50;;;;;11.51;70.70;101953.28;6340658;22;45089;-83
2021/12/31 05:32:33;;;;;;;;;14.25;13.00;;;;;11.52;70.99;101944.47;6340895;22;45293;-91
2021/12/31 05:34:58;;;;;;;;;11.50;9.75;;;;;11.50;70.77;101935.75;6340715;22;45252;-84
2021/12/31 05:37:24;;;;;;;;;17.50;14.50;;;;;11.48;70.61;101934.00;6340963;22;45242;-84
2021/12/31 05:39:49;;;;;;;;;12.25;10.75;;;;;11.47;70.58;101934.91;6340807;22;45429;-85
2021/12/31 05:42:15;;;;;;;;;14.00;12.50;;;;;11.45;70.68;101922.66;6340803;22;45148;-85
2021/12/31 05:44:41;;;;;;;;;14.25;13.75;;;;;11.44;70.57;101927.06;6340194;22;45223;-85
2021/12/31 05:47:06;;;;;;;;;16.00;12.50;;;;;11.43;70.55;101924.47;6341111;22;45195;-86
2021/12/31 05:49:32;;;;;;;;;13.75;12.00;;;;;11.40;70.69;101922.75;6340430;22;45350;-86
2021/12/31 05:51:57;;;;;;;;;10.25;10.25;;;;;11.39;70.58;101912.22;6341086;22;46469;-85
2021/12/31 05:54:23;;;;;;;;;13.25;11.25;;;;;11.38;70.48;101910.50;6340842;22;45276;-85
2021/12/31 05:56:49;;;;;;;;;17.25;13.25;;;;;11.38;71.00;101911.38;6312564;22;45247;-84
2021/12/31 05:59:14;;;;;;;;;13.75;12.25;;;;;11.35;70.71;101898.25;6340505;22;45279;-83
2021/12/31 06:01:39;;;;;;;;;13.25;11.50;;;;;11.34;70.53;101900.03;6340544;22;45786;-84
2021/12/31 06:04:06;;;;;;;;;15.75;12.00;;;;;11.32;70.76;101896.53;6340904;22;45238;-85
2021/12/31 06:06:31;;;;;;;;;12.50;11.00;;;;;11.33;70.52;101902.69;6340743;22;45202;-85
2021/12/31 06:08:57;;;;;;;;;9.25;9.25;;;;;11.31;70.87;101910.59;6340690;22;45565;-85
2021/12/31 06:11:22;;;;;;;;;12.25;11.75;;;;;11.31;70.93;101917.66;6340921;22;45384;-86
2021/12/31 06:13:55;;;;;;;;;12.00;9.50;;;;;11.32;70.96;101924.63;6340628;22;45250;-92
2021/12/31 06:16:20;;;;;;;;;10.25;10.25;;;;;11.30;70.84;101926.41;6341608;22;45254;-85
2021/12/31 06:18:46;;;;;;;;;11.50;10.00;;;;;11.28;70.79;101926.47;6313832;22;45868;-87
2021/12/31 06:21:11;;;;;;;;;12.00;10.25;;;;;11.30;70.97;101935.19;6341564;22;45404;-91
2021/12/31 06:23:37;;;;;;;;;11.25;11.00;;;;;11.31;71.11;101941.34;6342335;22;45248;-90
2021/12/31 06:26:02;;;;;;;;;7.75;7.25;;;;;11.30;71.07;101939.59;6313909;22;45214;-90
2021/12/31 06:28:27;;;;;;;;;9.00;9.00;;;;;11.30;71.01;101943.09;6341552;22;45311;-89
2021/12/31 06:30:53;;;;;;;;;8.25;8.00;;;;;11.31;71.17;101928.16;6313433;22;47964;-90
2021/12/31 06:33:18;;;;;;;;;10.50;8.50;;;;;11.31;71.48;101915.84;6342376;22;45210;-90
2021/12/31 06:35:43;;;;;;;;;9.00;7.00;;;;;11.34;71.31;101922.84;6342116;22;45218;-89
2021/12/31 06:38:09;;;;;;;;;8.25;7.75;;;;;11.33;71.30;101921.97;6341775;22;45175;-89
2021/12/31 06:40:36;;;;;;;;;8.25;7.50;;;;;11.34;71.24;101928.09;6313724;22;46771;-89
2021/12/31 06:43:01;;;;;;;;;9.00;7.00;;;;;11.38;71.44;101940.34;6341749;22;45600;-89
2021/12/31 06:45:27;;;;;;;;;9.00;8.00;;;;;11.37;71.19;101935.94;6313628;22;45167;-88
2021/12/31 06:47:52;;;;;;;;;8.25;8.25;;;;;11.39;71.49;101931.53;6341930;22;45429;-87
2021/12/31 06:50:18;;;;;;;;;9.00;8.00;;;;;11.38;71.58;101921.91;6341580;22;45364;-88
2021/12/31 06:52:45;;;;;;;;;8.75;8.00;;;;;11.40;71.50;101933.28;6342006;22;45299;-89
2021/12/31 06:55:10;;;;;;;;;9.75;8.50;;;;;11.41;71.48;101937.63;6342244;22;45336;-88
2021/12/31 06:57:36;;;;;;;;;9.75;8.50;;;;;11.41;71.26;101950.78;6342117;22;45498;-89
2021/12/31 07:00:06;;;;;;;;;9.25;8.25;;;;;11.43;71.10;101956.88;6341656;22;45398;-87
2021/12/31 07:02:31;;;;;;;;;10.75;9.75;;;;;11.40;71.32;101951.69;6313871;22;46018;-88
2021/12/31 07:04:57;;;;;;;;;9.75;8.50;;;;;11.42;71.13;101949.91;6341745;22;45289;-89
2021/12/31 07:07:22;;;;;;;;;10.00;9.75;;;;;11.42;71.08;101928.84;6341145;22;45388;-88
2021/12/31 07:09:47;;;;;;;;;8.75;8.75;;;;;11.39;71.16;101901.69;6341323;22;45549;-88
2021/12/31 07:12:13;;;;;;;;;8.75;8.00;;;;;11.43;70.95;101932.34;6341649;22;45239;-88
2021/12/31 07:14:38;;;;;;;;;11.00;10.00;;;;;11.41;71.11;101958.69;6341598;22;45487;-87
2021/12/31 07:17:04;;;;;;;;;8.75;8.75;;;;;11.41;71.10;101960.47;6341611;22;45376;-84
2021/12/31 07:19:29;;;;;;;;;11.50;10.00;;;;;11.42;70.95;101960.44;6341372;22;45267;-87
2021/12/31 07:21:54;;;;;;;;;14.50;9.75;;;;;11.42;70.92;101964.81;6339690;22;45357;-87
2021/12/31 07:24:20;;;;;;;;;11.75;10.00;;;;;11.41;71.13;101969.22;6313166;22;45282;-88
2021/12/31 07:26:45;;;;;;;;;12.25;10.50;;;;;11.39;71.20;101955.22;6312511;22;46935;-88
2021/12/31 07:29:10;;;;;;;;;11.50;9.50;;;;;11.39;71.13;101957.84;6339527;22;45684;-87
2021/12/31 07:31:36;;;;;;;;;12.00;12.00;;;;;11.37;70.94;101962.28;6340377;22;45342;-87
2021/12/31 07:34:01;;;;;;;;;16.00;12.00;;;;;11.36;71.22;101965.78;6340499;22;45411;-87
2021/12/31 07:36:27;;;;;;;;;13.50;12.75;;;;;11.36;71.12;101979.81;6312094;22;45646;-87
2021/12/31 07:39:00;;;;;;;;;14.00;11.50;;;;;11.33;71.26;101958.81;6312123;22;47360;-88
2021/12/31 07:41:26;;;;;;;;;13.25;12.50;;;;;11.33;71.39;101961.44;6340613;22;45794;-87
2021/12/31 07:43:51;;;;;;;;;12.00;11.75;;;;;11.35;71.30;101971.97;6312980;22;45296;-88
2021/12/31 07:46:16;;;;;;;;;14.50;11.25;;;;;11.36;71.62;101971.94;6312992;22;45776;-88
2021/12/31 07:48:42;;;;;;;;;13.75;12.00;;;;;11.34;71.23;101957.94;6313133;22;48275;-87
2021/12/31 07:51:07;;;;;;;;;13.25;11.75;;;;;11.35;71.35;101967.56;6341274;22;45175;-88
2021/12/31 07:53:32;;;;;;;;;18.25;14.50;;;;;11.36;71.30;101965.78;6341548;22;45132;-87
2021/12/31 07:55:58;;;;;;;;;14.75;13.25;;;;;11.36;71.34;101952.63;6341149;22;45373;-88
2021/12/31 07:58:24;;;;;;;;;16.50;15.00;;;;;11.36;71.10;101960.53;6341263;22;46464;-88
2021/12/31 08:00:50;;;;;;;;;16.25;14.25;;;;;11.37;71.02;101972.81;6341535;22;45278;-87
2021/12/31 08:03:16;;;;;;;;;10.25;10.25;;;;;11.36;71.24;101973.69;6312595;22;45204;-88
2021/12/31 08:05:41;;;;;;;;;14.00;12.25;;;;;11.37;71.03;101983.34;6341202;22;45160;-88
2021/12/31 08:08:07;;;;;;;;;12.75;11.50;;;;;11.37;71.26;101983.34;6340992;22;45377;-88
2021/12/31 08:10:34;;;;;;;;;14.50;11.50;;;;;11.37;71.33;101962.28;6341018;22;45372;-88
2021/12/31 08:13:02;;;;;;;;;13.25;12.00;;;;;11.36;71.45;101953.50;6341379;22;45344;-88
2021/12/31 08:15:28;;;;;;;;;10.50;10.25;;;;;11.42;71.90;101970.09;6341679;22;45163;-88
2021/12/31 08:17:56;;;;;;;;;10.75;10.75;;;;;11.42;71.73;101973.59;6312544;22;47305;-88
2021/12/31 08:20:23;;;;;;;;;14.25;12.75;;;;;11.44;71.90;101984.97;6312524;22;45169;-88
2021/12/31 08:22:50;;;;;;;;;14.50;10.25;;;;;11.47;71.78;101990.19;6341646;22;45301;-87
2021/12/31 08:25:15;;;;;;;;;11.25;9.50;;;;;11.48;71.76;101993.69;6313294;22;46934;-88
2021/12/31 08:27:41;;;;;;;;;13.25;10.75;;;;;11.51;72.07;101995.41;6341441;22;46202;-88
2021/12/31 08:30:07;;;;;;;;;15.00;13.00;;;;;11.51;71.87;101987.50;6340914;22;45369;-88
2021/12/31 08:32:33;;;;;;;;;14.00;12.00;;;;;11.53;71.99;101983.94;6341233;22;45165;-88
2021/12/31 08:34:59;;;;;;;;;12.50;11.50;;;;;11.54;71.78;101995.34;6312856;22;46491;-88
2021/12/31 08:37:24;;;;;;;;;16.25;13.25;;;;;11.57;72.16;102011.09;6340677;22;46269;-87
2021/12/31 08:39:49;;;;;;;;;14.75;14.00;;;;;11.54;71.87;102006.75;6340862;22;45239;-88
2021/12/31 08:42:15;;;;;;;;;14.00;14.00;;;;;11.56;72.22;102004.06;6340872;22;45319;-88
2021/12/31 08:44:40;;;;;;;;;15.25;13.00;;;;;11.60;72.34;101997.88;6340998;22;45164;-88
2021/12/31 08:47:05;;;;;;;;;13.75;13.75;;;;;11.65;72.26;102014.47;6340301;22;45230;-87
2021/12/31 08:49:31;;;;;;;;;16.00;14.50;;;;;11.70;72.26;102012.59;6340341;22;45153;-88
2021/12/31 08:51:56;;;;;;;;;15.50;13.50;;;;;11.70;71.91;102001.22;6312463;22;45192;-88
2021/12/31 08:54:22;;;;;;;;;16.00;14.75;;;;;11.75;72.12;102009.06;6340830;22;45159;-88
2021/12/31 08:56:47;;;;;;;;;14.75;12.50;;;;;11.79;72.51;102001.06;6341366;22;46179;-85
2021/12/31 08:59:13;;;;;;;;;17.75;12.25;;;;;11.83;72.50;102004.50;6340758;22;45322;-85
2021/12/31 09:01:39;;;;;;;;;10.50;10.50;;;;;11.86;72.74;102014.97;6341422;22;45509;-86
2021/12/31 09:04:04;;;;;;;;;13.25;12.00;;;;;11.92;72.60;102014.03;6340705;22;45426;-86
2021/12/31 09:06:30;;;;;;;;;13.50;12.75;;;;;11.98;72.72;102015.66;6312585;22;46767;-86
2021/12/31 09:08:55;;;;;;;;;15.00;15.00;;;;;12.01;72.47;102005.94;6341312;22;45294;-85
2021/12/31 09:11:21;;;;;;;;;16.75;12.75;;;;;12.05;72.58;101996.19;6340974;22;45212;-85
2021/12/31 09:13:47;;;;;;;;;15.25;14.75;;;;;12.07;72.51;101989.16;6311991;22;47205;-86
2021/12/31 09:16:13;;;;;;;;;14.50;11.00;;;;;12.12;72.42;101997.81;6312562;22;47978;-86
2021/12/31 09:18:39;;;;;;;;;15.00;13.50;;;;;12.15;72.70;102003.06;6341227;22;45256;-86
2021/12/31 09:21:05;;;;;;;;;15.25;14.25;;;;;12.18;72.53;102024.97;6311982;22;45202;-86
2021/12/31 09:23:30;;;;;;;;;15.75;14.75;;;;;12.22;72.43;102055.69;6341187;22;45454;-85
2021/12/31 09:25:57;;;;;;;;;18.00;15.50;;;;;12.22;72.18;102066.22;6341078;22;45303;-86
2021/12/31 09:28:22;;;;;;;;;11.50;10.50;;;;;12.21;71.77;102028.44;6312550;22;45430;-86
2021/12/31 09:30:48;;;;;;;;;15.75;11.00;;;;;12.22;71.66;102016.13;6341438;22;45262;-86
2021/12/31 09:33:13;;;;;;;;;11.25;11.25;;;;;12.25;71.98;102018.69;6341051;22;45230;-86
2021/12/31 09:35:39;;;;;;;;;11.50;11.00;;;;;12.24;71.62;102027.53;6340833;22;45374;-85
2021/12/31 09:38:08;;;;;;;;;14.75;13.50;;;;;12.27;71.60;102051.19;6341096;22;45290;-86
2021/12/31 09:40:35;;;;;;;;;16.25;12.00;;;;;12.27;71.69;102053.81;6312767;22;45171;-86
2021/12/31 09:43:09;;;;;;;;;17.75;13.25;;;;;12.26;71.42;102050.31;6340746;22;45299;-86
2021/12/31 09:45:37;;;;;;;;;9.00;7.25;;;;;12.25;71.51;102030.13;6340985;22;46260;-86
2021/12/31 09:48:12;;;;;;;;;12.50;11.75;;;;;12.27;71.55;102030.09;6340772;22;45691;-85
2021/12/31 09:50:40;;;;;;;;;14.25;13.50;;;;;12.25;71.48;102023.97;6311733;22;45360;-85
2021/12/31 09:53:07;;;;;;;;;16.25;14.00;;;;;12.26;71.39;102023.97;6340623;22;45376;-85
2021/12/31 09:55:44;;;;;;;;;15.50;14.00;;;;;12.26;71.43;102044.16;6312400;22;46320;-85
2021/12/31 09:58:11;;;;;;;;;19.75;15.00;;;;;12.30;71.57;102068.72;6340646;22;45166;-85
2021/12/31 10:00:38;;;;;;;;;15.00;14.00;;;;;12.30;71.49;102088.03;6341469;22;45104;-85
2021/12/31 10:03:19;;;;;;;;;16.25;15.00;;;;;12.29;71.28;102093.34;6340690;22;45561;-85
2021/12/31 10:05:51;;;;;;;;;14.00;13.00;;;;;12.30;71.54;102095.94;6340893;22;46061;-85
2021/12/31 10:08:22;;;;;;;;;15.00;15.00;;;;;12.30;71.48;102105.63;6340004;22;45692;-85
2021/12/31 10:11:13;;;;;;;;;17.25;15.25;;;;;12.32;71.41;102107.31;6312626;22;45420;-85
2021/12/31 10:13:44;;;;;;;;;16.75;14.50;;;;;12.33;71.78;102101.16;6340623;22;45210;-85
2021/12/31 10:16:23;;;;;;;;;17.00;16.25;;;;;12.36;71.78;102105.50;6340854;22;45322;-85
2021/12/31 10:18:49;;;;;;;;;15.75;15.00;;;;;12.37;71.93;102100.19;6340876;22;45218;-85
2021/12/31 10:21:19;;;;;;;;;14.00;13.50;;;;;12.39;71.88;102094.91;6340197;22;45161;-85
2021/12/31 10:23:45;;;;;;;;;19.25;15.50;;;;;12.38;71.87;102094.03;6340815;22;45340;-85
2021/12/31 10:26:17;;;;;;;;;18.25;17.25;;;;;12.39;71.75;102084.34;6340579;22;46260;-85
2021/12/31 10:28:58;;;;;;;;;20.75;16.75;;;;;12.40;71.84;102095.75;6340416;22;45661;-85
2021/12/31 10:31:24;;;;;;;;;20.00;16.00;;;;;12.42;71.95;102104.53;6340962;22;45227;-85
2021/12/31 10:33:50;;;;;;;;;16.00;15.50;;;;;12.46;71.84;102101.81;6340668;22;45191;-85
2021/12/31 10:36:38;;;;;;;;;18.00;16.50;;;;;12.46;71.87;102091.25;6340298;22;46385;-84
2021/12/31 10:39:19;;;;;;;;;19.25;17.75;;;;;12.46;72.07;102101.81;6312204;22;46086;-84
2021/12/31 10:42:03;;;;;;;;;19.00;17.75;;;;;12.48;71.85;102114.94;6340425;22;45159;-84
2021/12/31 10:44:42;;;;;;;;;20.75;19.75;;;;;12.53;72.17;102133.31;6340249;22;45173;-84
2021/12/31 10:47:11;;;;;;;;;19.00;16.00;;;;;12.53;71.95;102146.50;6340515;22;46278;-84
2021/12/31 10:50:02;;;;;;;;;19.75;17.75;;;;;12.57;71.88;102161.34;6311227;22;45596;-84
2021/12/31 10:52:37;;;;;;;;;21.75;18.50;;;;;12.60;71.88;102182.41;6340438;22;45376;-84
2021/12/31 10:55:17;;;;;;;;;22.00;20.75;;;;;12.63;71.73;102177.09;6340213;22;45327;-84
2021/12/31 10:57:44;;;;;;;;;20.50;17.00;;;;;12.64;71.86;102175.34;6339761;22;45575;-84
2021/12/31 11:00:11;;;;;;;;;13.00;11.75;;;;;12.70;72.07;102175.19;6340122;22;45612;-83
2021/12/31 11:02:38;;;;;;;;;15.00;13.25;;;;;12.73;71.91;102161.97;6340812;22;45220;-84
2021/12/31 11:05:05;;;;;;;;;12.00;11.25;;;;;12.79;72.14;102167.09;6341799;22;45583;-84
2021/12/31 11:07:31;;;;;;;;;13.50;12.25;;;;;12.83;72.31;102162.66;6341674;22;45499;-84
2021/12/31 11:10:00;;;;;;;;;14.25;12.50;;;;;12.86;72.44;102153.81;6340038;22;45330;-84
2021/12/31 11:12:29;;;;;;;;;12.50;9.75;;;;;12.91;72.50;102157.22;6341929;22;45167;-84
2021/12/31 11:14:55;;;;;;;;;13.75;10.50;;;;;12.94;72.15;102162.41;6341676;22;45325;-84